sensor_id;sensor_type;location;lat;lon;timestamp;P1;durP1;ratioP1;P2;durP2;ratioP2
64498;SDS011;51087;55.718;21.122;2023-07-29T00:02:01;10.82;;;5.78;;
64498;SDS011;51087;55.718;21.122;2023-07-29T00:04:26;9.48;;;5.70;;
64498;SDS011;51087;55.718;21.122;2023-07-29T00:06:51;6.55;;;4.88;;
64498;SDS011;51087;55.718;21.122;2023-07-29T00:09:16;10.32;;;4.72;;
64498;SDS011;51087;55.718;21.122;2023-07-29T00:11:42;7.63;;;4.90;;
64498;SDS011;51087;55.718;21.122;2023-07-29T00:14:07;7.70;;;5.07;;
64498;SDS011;51087;55.718;21.122;2023-07-29T00:16:32;6.40;;;4.78;;
64498;SDS011;51087;55.718;21.122;2023-07-29T00:18:57;6.47;;;3.47;;
64498;SDS011;51087;55.718;21.122;2023-07-29T00:21:23;6.90;;;4.85;;
64498;SDS011;51087;55.718;21.122;2023-07-29T00:23:48;5.95;;;4.00;;
64498;SDS011;51087;55.718;21.122;2023-07-29T00:26:13;6.35;;;3.95;;
64498;SDS011;51087;55.718;21.122;2023-07-29T00:28:39;6.95;;;4.30;;
64498;SDS011;51087;55.718;21.122;2023-07-29T00:31:04;11.80;;;4.10;;
64498;SDS011;51087;55.718;21.122;2023-07-29T00:33:29;8.13;;;4.38;;
64498;SDS011;51087;55.718;21.122;2023-07-29T00:35:54;7.57;;;4.30;;
64498;SDS011;51087;55.718;21.122;2023-07-29T00:38:20;7.13;;;3.63;;
64498;SDS011;51087;55.718;21.122;2023-07-29T00:40:45;7.63;;;4.30;;
64498;SDS011;51087;55.718;21.122;2023-07-29T00:43:10;6.28;;;4.20;;
64498;SDS011;51087;55.718;21.122;2023-07-29T00:45:36;6.18;;;4.30;;
64498;SDS011;51087;55.718;21.122;2023-07-29T00:48:01;6.10;;;3.50;;
64498;SDS011;51087;55.718;21.122;2023-07-29T00:50:27;6.82;;;4.78;;
64498;SDS011;51087;55.718;21.122;2023-07-29T00:52:54;7.47;;;4.78;;
64498;SDS011;51087;55.718;21.122;2023-07-29T00:55:19;6.95;;;4.75;;
64498;SDS011;51087;55.718;21.122;2023-07-29T00:57:45;6.40;;;4.53;;
64498;SDS011;51087;55.718;21.122;2023-07-29T01:00:13;9.13;;;4.75;;
64498;SDS011;51087;55.718;21.122;2023-07-29T01:02:38;8.27;;;4.72;;
64498;SDS011;51087;55.718;21.122;2023-07-29T01:05:04;9.65;;;5.22;;
64498;SDS011;51087;55.718;21.122;2023-07-29T01:07:39;12.63;;;5.38;;
64498;SDS011;51087;55.718;21.122;2023-07-29T01:10:07;7.45;;;3.97;;
64498;SDS011;51087;55.718;21.122;2023-07-29T01:17:55;7.40;;;5.00;;
64498;SDS011;51087;55.718;21.122;2023-07-29T01:20:23;7.85;;;4.45;;
64498;SDS011;51087;55.718;21.122;2023-07-29T01:22:49;7.53;;;4.60;;
64498;SDS011;51087;55.718;21.122;2023-07-29T01:25:14;9.30;;;4.47;;
64498;SDS011;51087;55.718;21.122;2023-07-29T01:27:41;7.22;;;4.07;;
64498;SDS011;51087;55.718;21.122;2023-07-29T01:30:07;5.78;;;3.97;;
64498;SDS011;51087;55.718;21.122;2023-07-29T01:37:41;11.30;;;4.80;;
64498;SDS011;51087;55.718;21.122;2023-07-29T01:40:07;7.72;;;3.85;;
64498;SDS011;51087;55.718;21.122;2023-07-29T01:42:33;6.18;;;3.83;;
64498;SDS011;51087;55.718;21.122;2023-07-29T01:44:59;6.78;;;4.25;;
64498;SDS011;51087;55.718;21.122;2023-07-29T01:47:24;8.38;;;4.45;;
64498;SDS011;51087;55.718;21.122;2023-07-29T01:49:50;8.15;;;4.25;;
64498;SDS011;51087;55.718;21.122;2023-07-29T01:52:15;6.93;;;4.55;;
64498;SDS011;51087;55.718;21.122;2023-07-29T01:54:40;8.65;;;4.72;;
64498;SDS011;51087;55.718;21.122;2023-07-29T01:57:06;6.45;;;4.30;;
64498;SDS011;51087;55.718;21.122;2023-07-29T01:59:31;5.57;;;3.30;;
64498;SDS011;51087;55.718;21.122;2023-07-29T02:01:56;10.05;;;5.60;;
64498;SDS011;51087;55.718;21.122;2023-07-29T02:04:21;9.13;;;4.40;;
64498;SDS011;51087;55.718;21.122;2023-07-29T02:06:47;6.28;;;4.03;;
64498;SDS011;51087;55.718;21.122;2023-07-29T02:09:12;4.00;;;2.72;;
64498;SDS011;51087;55.718;21.122;2023-07-29T02:11:37;8.70;;;5.13;;
64498;SDS011;51087;55.718;21.122;2023-07-29T02:14:03;9.68;;;5.18;;
64498;SDS011;51087;55.718;21.122;2023-07-29T02:16:28;7.80;;;3.80;;
64498;SDS011;51087;55.718;21.122;2023-07-29T02:18:54;8.30;;;4.55;;
64498;SDS011;51087;55.718;21.122;2023-07-29T02:21:19;8.30;;;4.80;;
64498;SDS011;51087;55.718;21.122;2023-07-29T02:23:45;8.45;;;5.28;;
64498;SDS011;51087;55.718;21.122;2023-07-29T02:26:10;9.38;;;5.93;;
64498;SDS011;51087;55.718;21.122;2023-07-29T02:28:35;10.30;;;5.10;;
64498;SDS011;51087;55.718;21.122;2023-07-29T02:33:42;8.68;;;4.75;;
64498;SDS011;51087;55.718;21.122;2023-07-29T02:36:07;10.55;;;5.18;;
64498;SDS011;51087;55.718;21.122;2023-07-29T02:38:32;12.43;;;5.15;;
64498;SDS011;51087;55.718;21.122;2023-07-29T02:40:58;13.20;;;5.32;;
64498;SDS011;51087;55.718;21.122;2023-07-29T02:43:23;10.27;;;5.20;;
64498;SDS011;51087;55.718;21.122;2023-07-29T02:45:48;10.35;;;5.70;;
64498;SDS011;51087;55.718;21.122;2023-07-29T02:48:14;9.50;;;5.25;;
64498;SDS011;51087;55.718;21.122;2023-07-29T02:50:39;9.80;;;4.85;;
64498;SDS011;51087;55.718;21.122;2023-07-29T02:53:04;8.60;;;5.40;;
64498;SDS011;51087;55.718;21.122;2023-07-29T02:55:30;5.95;;;2.92;;
64498;SDS011;51087;55.718;21.122;2023-07-29T02:57:55;7.43;;;5.20;;
64498;SDS011;51087;55.718;21.122;2023-07-29T03:00:20;4.03;;;2.50;;
64498;SDS011;51087;55.718;21.122;2023-07-29T03:02:46;12.20;;;3.83;;
64498;SDS011;51087;55.718;21.122;2023-07-29T03:05:11;4.63;;;2.80;;
64498;SDS011;51087;55.718;21.122;2023-07-29T03:07:36;8.60;;;4.32;;
64498;SDS011;51087;55.718;21.122;2023-07-29T03:10:02;5.72;;;3.10;;
64498;SDS011;51087;55.718;21.122;2023-07-29T03:12:27;8.30;;;5.25;;
64498;SDS011;51087;55.718;21.122;2023-07-29T03:14:52;11.15;;;5.10;;
64498;SDS011;51087;55.718;21.122;2023-07-29T03:17:18;7.43;;;4.13;;
64498;SDS011;51087;55.718;21.122;2023-07-29T03:19:43;6.20;;;3.15;;
64498;SDS011;51087;55.718;21.122;2023-07-29T03:22:08;7.18;;;4.32;;
64498;SDS011;51087;55.718;21.122;2023-07-29T03:24:34;7.72;;;3.80;;
64498;SDS011;51087;55.718;21.122;2023-07-29T03:26:59;7.18;;;3.95;;
64498;SDS011;51087;55.718;21.122;2023-07-29T03:29:24;9.15;;;4.70;;
64498;SDS011;51087;55.718;21.122;2023-07-29T03:31:49;7.55;;;4.57;;
64498;SDS011;51087;55.718;21.122;2023-07-29T03:34:15;8.88;;;4.80;;
64498;SDS011;51087;55.718;21.122;2023-07-29T03:36:40;9.30;;;4.25;;
64498;SDS011;51087;55.718;21.122;2023-07-29T03:39:06;9.85;;;5.35;;
64498;SDS011;51087;55.718;21.122;2023-07-29T03:41:32;8.75;;;4.50;;
64498;SDS011;51087;55.718;21.122;2023-07-29T03:43:58;7.90;;;3.95;;
64498;SDS011;51087;55.718;21.122;2023-07-29T03:46:23;12.65;;;4.40;;
64498;SDS011;51087;55.718;21.122;2023-07-29T03:48:49;14.55;;;4.22;;
64498;SDS011;51087;55.718;21.122;2023-07-29T03:51:14;8.98;;;4.55;;
64498;SDS011;51087;55.718;21.122;2023-07-29T03:53:39;6.18;;;3.15;;
64498;SDS011;51087;55.718;21.122;2023-07-29T03:56:05;6.90;;;3.45;;
64498;SDS011;51087;55.718;21.122;2023-07-29T03:58:30;3.72;;;2.50;;
64498;SDS011;51087;55.718;21.122;2023-07-29T04:00:55;7.32;;;3.63;;
64498;SDS011;51087;55.718;21.122;2023-07-29T04:03:20;6.18;;;2.80;;
64498;SDS011;51087;55.718;21.122;2023-07-29T04:05:48;5.57;;;3.15;;
64498;SDS011;51087;55.718;21.122;2023-07-29T04:08:14;7.65;;;3.85;;
64498;SDS011;51087;55.718;21.122;2023-07-29T04:10:39;6.60;;;3.88;;
64498;SDS011;51087;55.718;21.122;2023-07-29T04:13:04;8.60;;;4.07;;
64498;SDS011;51087;55.718;21.122;2023-07-29T04:15:30;8.38;;;4.00;;
64498;SDS011;51087;55.718;21.122;2023-07-29T04:17:55;5.65;;;2.40;;
64498;SDS011;51087;55.718;21.122;2023-07-29T04:20:20;8.18;;;3.95;;
64498;SDS011;51087;55.718;21.122;2023-07-29T04:22:46;6.20;;;3.47;;
64498;SDS011;51087;55.718;21.122;2023-07-29T04:25:11;5.80;;;3.08;;
64498;SDS011;51087;55.718;21.122;2023-07-29T04:27:38;6.57;;;3.38;;
64498;SDS011;51087;55.718;21.122;2023-07-29T04:30:03;7.00;;;3.80;;
64498;SDS011;51087;55.718;21.122;2023-07-29T04:32:28;6.35;;;3.53;;
64498;SDS011;51087;55.718;21.122;2023-07-29T04:34:54;3.72;;;2.20;;
64498;SDS011;51087;55.718;21.122;2023-07-29T04:37:19;8.13;;;4.10;;
64498;SDS011;51087;55.718;21.122;2023-07-29T04:39:44;8.05;;;3.35;;
64498;SDS011;51087;55.718;21.122;2023-07-29T04:42:10;9.52;;;4.18;;
64498;SDS011;51087;55.718;21.122;2023-07-29T04:44:35;9.90;;;2.25;;
64498;SDS011;51087;55.718;21.122;2023-07-29T04:47:00;10.00;;;4.20;;
64498;SDS011;51087;55.718;21.122;2023-07-29T04:49:25;7.95;;;4.40;;
64498;SDS011;51087;55.718;21.122;2023-07-29T04:51:51;6.85;;;3.70;;
64498;SDS011;51087;55.718;21.122;2023-07-29T04:54:16;8.82;;;4.80;;
64498;SDS011;51087;55.718;21.122;2023-07-29T04:56:41;10.15;;;4.63;;
64498;SDS011;51087;55.718;21.122;2023-07-29T04:59:07;9.23;;;4.00;;
64498;SDS011;51087;55.718;21.122;2023-07-29T05:01:33;9.35;;;4.05;;
64498;SDS011;51087;55.718;21.122;2023-07-29T05:03:58;11.13;;;4.30;;
64498;SDS011;51087;55.718;21.122;2023-07-29T05:06:24;10.02;;;4.10;;
64498;SDS011;51087;55.718;21.122;2023-07-29T05:08:49;10.18;;;4.40;;
64498;SDS011;51087;55.718;21.122;2023-07-29T05:11:14;6.65;;;3.40;;
64498;SDS011;51087;55.718;21.122;2023-07-29T05:13:39;8.88;;;3.72;;
64498;SDS011;51087;55.718;21.122;2023-07-29T05:16:05;6.13;;;4.03;;
64498;SDS011;51087;55.718;21.122;2023-07-29T05:18:30;7.93;;;3.63;;
64498;SDS011;51087;55.718;21.122;2023-07-29T05:20:56;8.20;;;4.20;;
64498;SDS011;51087;55.718;21.122;2023-07-29T05:23:21;6.85;;;4.25;;
64498;SDS011;51087;55.718;21.122;2023-07-29T05:25:46;8.25;;;4.60;;
64498;SDS011;51087;55.718;21.122;2023-07-29T05:28:12;7.25;;;4.82;;
64498;SDS011;51087;55.718;21.122;2023-07-29T05:30:37;9.93;;;4.88;;
64498;SDS011;51087;55.718;21.122;2023-07-29T05:33:04;11.00;;;4.45;;
64498;SDS011;51087;55.718;21.122;2023-07-29T05:35:30;9.00;;;4.50;;
64498;SDS011;51087;55.718;21.122;2023-07-29T05:37:55;8.27;;;4.00;;
64498;SDS011;51087;55.718;21.122;2023-07-29T05:40:21;10.13;;;4.20;;
64498;SDS011;51087;55.718;21.122;2023-07-29T05:42:46;10.93;;;4.13;;
64498;SDS011;51087;55.718;21.122;2023-07-29T05:45:12;7.97;;;3.88;;
64498;SDS011;51087;55.718;21.122;2023-07-29T05:47:38;6.45;;;4.05;;
64498;SDS011;51087;55.718;21.122;2023-07-29T05:50:03;6.63;;;3.67;;
64498;SDS011;51087;55.718;21.122;2023-07-29T05:52:29;11.18;;;4.13;;
64498;SDS011;51087;55.718;21.122;2023-07-29T05:54:55;8.30;;;4.32;;
64498;SDS011;51087;55.718;21.122;2023-07-29T05:57:20;7.05;;;3.65;;
64498;SDS011;51087;55.718;21.122;2023-07-29T05:59:45;10.73;;;3.90;;
64498;SDS011;51087;55.718;21.122;2023-07-29T06:02:10;9.48;;;4.03;;
64498;SDS011;51087;55.718;21.122;2023-07-29T06:04:36;5.43;;;3.70;;
64498;SDS011;51087;55.718;21.122;2023-07-29T06:07:01;5.75;;;2.95;;
64498;SDS011;51087;55.718;21.122;2023-07-29T06:09:27;7.05;;;3.65;;
64498;SDS011;51087;55.718;21.122;2023-07-29T06:11:52;7.32;;;3.97;;
64498;SDS011;51087;55.718;21.122;2023-07-29T06:14:17;6.95;;;3.85;;
64498;SDS011;51087;55.718;21.122;2023-07-29T06:16:43;8.00;;;4.10;;
64498;SDS011;51087;55.718;21.122;2023-07-29T06:19:08;9.20;;;4.30;;
64498;SDS011;51087;55.718;21.122;2023-07-29T06:21:34;7.82;;;3.58;;
64498;SDS011;51087;55.718;21.122;2023-07-29T06:23:59;10.45;;;4.18;;
64498;SDS011;51087;55.718;21.122;2023-07-29T06:26:24;7.63;;;3.95;;
64498;SDS011;51087;55.718;21.122;2023-07-29T06:28:49;8.02;;;3.30;;
64498;SDS011;51087;55.718;21.122;2023-07-29T06:31:15;8.05;;;4.00;;
64498;SDS011;51087;55.718;21.122;2023-07-29T06:33:40;6.43;;;3.65;;
64498;SDS011;51087;55.718;21.122;2023-07-29T06:36:05;6.18;;;3.30;;
64498;SDS011;51087;55.718;21.122;2023-07-29T06:38:31;7.65;;;4.07;;
64498;SDS011;51087;55.718;21.122;2023-07-29T06:40:56;7.85;;;4.25;;
64498;SDS011;51087;55.718;21.122;2023-07-29T06:43:21;9.32;;;4.00;;
64498;SDS011;51087;55.718;21.122;2023-07-29T06:45:47;2.28;;;1.77;;
64498;SDS011;51087;55.718;21.122;2023-07-29T06:48:12;6.20;;;3.70;;
64498;SDS011;51087;55.718;21.122;2023-07-29T06:50:37;6.07;;;3.63;;
64498;SDS011;51087;55.718;21.122;2023-07-29T06:53:03;8.98;;;4.57;;
64498;SDS011;51087;55.718;21.122;2023-07-29T06:55:28;8.57;;;4.53;;
64498;SDS011;51087;55.718;21.122;2023-07-29T06:57:53;6.38;;;4.07;;
64498;SDS011;51087;55.718;21.122;2023-07-29T07:00:18;8.25;;;4.35;;
64498;SDS011;51087;55.718;21.122;2023-07-29T07:02:44;8.93;;;2.95;;
64498;SDS011;51087;55.718;21.122;2023-07-29T07:05:09;7.47;;;3.13;;
64498;SDS011;51087;55.718;21.122;2023-07-29T07:07:34;6.13;;;2.42;;
64498;SDS011;51087;55.718;21.122;2023-07-29T07:10:00;7.65;;;3.47;;
64498;SDS011;51087;55.718;21.122;2023-07-29T07:12:25;6.32;;;2.80;;
64498;SDS011;51087;55.718;21.122;2023-07-29T07:14:50;8.27;;;3.20;;
64498;SDS011;51087;55.718;21.122;2023-07-29T07:17:16;7.95;;;3.15;;
64498;SDS011;51087;55.718;21.122;2023-07-29T07:19:41;4.70;;;2.58;;
64498;SDS011;51087;55.718;21.122;2023-07-29T07:22:06;5.28;;;2.42;;
64498;SDS011;51087;55.718;21.122;2023-07-29T07:24:32;7.22;;;3.33;;
64498;SDS011;51087;55.718;21.122;2023-07-29T07:26:57;7.80;;;2.15;;
64498;SDS011;51087;55.718;21.122;2023-07-29T07:29:22;9.65;;;2.90;;
64498;SDS011;51087;55.718;21.122;2023-07-29T07:31:51;7.82;;;3.28;;
64498;SDS011;51087;55.718;21.122;2023-07-29T07:34:20;7.90;;;3.38;;
64498;SDS011;51087;55.718;21.122;2023-07-29T07:36:46;10.68;;;3.88;;
64498;SDS011;51087;55.718;21.122;2023-07-29T07:39:11;5.45;;;3.17;;
64498;SDS011;51087;55.718;21.122;2023-07-29T07:41:37;6.10;;;2.65;;
64498;SDS011;51087;55.718;21.122;2023-07-29T07:44:02;7.72;;;3.00;;
64498;SDS011;51087;55.718;21.122;2023-07-29T07:46:28;4.75;;;2.63;;
64498;SDS011;51087;55.718;21.122;2023-07-29T07:48:53;7.40;;;2.80;;
64498;SDS011;51087;55.718;21.122;2023-07-29T07:51:18;9.15;;;3.00;;
64498;SDS011;51087;55.718;21.122;2023-07-29T07:53:43;5.43;;;2.25;;
64498;SDS011;51087;55.718;21.122;2023-07-29T07:56:09;8.07;;;2.90;;
64498;SDS011;51087;55.718;21.122;2023-07-29T07:58:34;7.03;;;2.67;;
64498;SDS011;51087;55.718;21.122;2023-07-29T08:01:03;6.03;;;2.28;;
64498;SDS011;51087;55.718;21.122;2023-07-29T08:03:29;4.50;;;2.95;;
64498;SDS011;51087;55.718;21.122;2023-07-29T08:05:54;6.10;;;3.08;;
64498;SDS011;51087;55.718;21.122;2023-07-29T08:08:19;4.95;;;1.67;;
64498;SDS011;51087;55.718;21.122;2023-07-29T08:10:45;4.60;;;2.53;;
64498;SDS011;51087;55.718;21.122;2023-07-29T08:13:10;7.05;;;2.80;;
64498;SDS011;51087;55.718;21.122;2023-07-29T08:15:35;6.80;;;2.78;;
64498;SDS011;51087;55.718;21.122;2023-07-29T08:18:00;5.00;;;2.72;;
64498;SDS011;51087;55.718;21.122;2023-07-29T08:20:26;5.57;;;2.38;;
64498;SDS011;51087;55.718;21.122;2023-07-29T08:22:51;7.00;;;2.75;;
64498;SDS011;51087;55.718;21.122;2023-07-29T08:25:16;4.40;;;2.00;;
64498;SDS011;51087;55.718;21.122;2023-07-29T08:27:41;6.75;;;2.88;;
64498;SDS011;51087;55.718;21.122;2023-07-29T08:30:07;7.28;;;2.13;;
64498;SDS011;51087;55.718;21.122;2023-07-29T08:32:32;7.32;;;2.00;;
64498;SDS011;51087;55.718;21.122;2023-07-29T08:34:58;6.38;;;2.55;;
64498;SDS011;51087;55.718;21.122;2023-07-29T08:37:23;8.40;;;2.60;;
64498;SDS011;51087;55.718;21.122;2023-07-29T08:39:48;7.10;;;2.38;;
64498;SDS011;51087;55.718;21.122;2023-07-29T08:42:14;5.53;;;1.90;;
64498;SDS011;51087;55.718;21.122;2023-07-29T08:44:43;7.40;;;2.70;;
64498;SDS011;51087;55.718;21.122;2023-07-29T08:47:08;4.72;;;2.03;;
64498;SDS011;51087;55.718;21.122;2023-07-29T08:49:34;5.80;;;2.10;;
64498;SDS011;51087;55.718;21.122;2023-07-29T08:51:59;6.15;;;2.63;;
64498;SDS011;51087;55.718;21.122;2023-07-29T08:54:25;6.88;;;2.40;;
64498;SDS011;51087;55.718;21.122;2023-07-29T08:56:50;11.35;;;2.78;;
64498;SDS011;51087;55.718;21.122;2023-07-29T08:59:15;10.75;;;2.33;;
64498;SDS011;51087;55.718;21.122;2023-07-29T09:01:42;6.07;;;1.98;;
64498;SDS011;51087;55.718;21.122;2023-07-29T09:04:07;2.45;;;1.45;;
64498;SDS011;51087;55.718;21.122;2023-07-29T09:06:33;2.17;;;1.10;;
64498;SDS011;51087;55.718;21.122;2023-07-29T09:09:01;2.65;;;1.52;;
64498;SDS011;51087;55.718;21.122;2023-07-29T09:11:27;4.05;;;1.70;;
64498;SDS011;51087;55.718;21.122;2023-07-29T09:13:53;3.00;;;1.65;;
64498;SDS011;51087;55.718;21.122;2023-07-29T09:16:18;2.90;;;1.50;;
64498;SDS011;51087;55.718;21.122;2023-07-29T09:18:47;2.97;;;1.30;;
64498;SDS011;51087;55.718;21.122;2023-07-29T09:21:12;5.15;;;2.00;;
64498;SDS011;51087;55.718;21.122;2023-07-29T09:23:40;5.80;;;1.80;;
64498;SDS011;51087;55.718;21.122;2023-07-29T09:26:06;2.50;;;1.60;;
64498;SDS011;51087;55.718;21.122;2023-07-29T09:28:35;5.22;;;1.55;;
64498;SDS011;51087;55.718;21.122;2023-07-29T09:31:00;3.70;;;1.60;;
64498;SDS011;51087;55.718;21.122;2023-07-29T09:33:26;2.88;;;1.63;;
64498;SDS011;51087;55.718;21.122;2023-07-29T09:35:51;4.78;;;1.67;;
64498;SDS011;51087;55.718;21.122;2023-07-29T09:38:17;2.92;;;1.80;;
64498;SDS011;51087;55.718;21.122;2023-07-29T09:40:42;3.75;;;1.60;;
64498;SDS011;51087;55.718;21.122;2023-07-29T09:43:10;4.53;;;1.80;;
64498;SDS011;51087;55.718;21.122;2023-07-29T09:45:35;3.88;;;1.73;;
64498;SDS011;51087;55.718;21.122;2023-07-29T09:48:02;2.28;;;1.15;;
64498;SDS011;51087;55.718;21.122;2023-07-29T09:50:28;5.20;;;1.73;;
64498;SDS011;51087;55.718;21.122;2023-07-29T09:52:54;3.65;;;1.77;;
64498;SDS011;51087;55.718;21.122;2023-07-29T09:55:22;4.93;;;1.77;;
64498;SDS011;51087;55.718;21.122;2023-07-29T09:57:56;4.43;;;1.60;;
64498;SDS011;51087;55.718;21.122;2023-07-29T10:00:21;4.97;;;1.30;;
64498;SDS011;51087;55.718;21.122;2023-07-29T10:02:47;1.80;;;1.30;;
64498;SDS011;51087;55.718;21.122;2023-07-29T10:05:12;4.95;;;1.48;;
64498;SDS011;51087;55.718;21.122;2023-07-29T10:07:38;4.40;;;1.45;;
64498;SDS011;51087;55.718;21.122;2023-07-29T10:10:04;3.28;;;1.90;;
64498;SDS011;51087;55.718;21.122;2023-07-29T10:12:31;3.25;;;1.45;;
64498;SDS011;51087;55.718;21.122;2023-07-29T10:15:02;3.58;;;1.23;;
64498;SDS011;51087;55.718;21.122;2023-07-29T10:17:29;2.10;;;1.58;;
64498;SDS011;51087;55.718;21.122;2023-07-29T10:19:55;5.93;;;1.65;;
64498;SDS011;51087;55.718;21.122;2023-07-29T10:22:21;3.53;;;1.60;;
64498;SDS011;51087;55.718;21.122;2023-07-29T10:24:47;1.98;;;1.00;;
64498;SDS011;51087;55.718;21.122;2023-07-29T10:27:13;4.07;;;1.35;;
64498;SDS011;51087;55.718;21.122;2023-07-29T10:29:42;3.05;;;1.20;;
64498;SDS011;51087;55.718;21.122;2023-07-29T10:32:08;4.90;;;1.60;;
64498;SDS011;51087;55.718;21.122;2023-07-29T10:34:34;1.38;;;1.10;;
64498;SDS011;51087;55.718;21.122;2023-07-29T10:37:01;2.60;;;1.70;;
64498;SDS011;51087;55.718;21.122;2023-07-29T10:39:27;2.35;;;1.20;;
64498;SDS011;51087;55.718;21.122;2023-07-29T10:42:02;5.82;;;1.40;;
64498;SDS011;51087;55.718;21.122;2023-07-29T10:47:14;3.08;;;1.10;;
64498;SDS011;51087;55.718;21.122;2023-07-29T10:49:40;4.07;;;1.25;;
64498;SDS011;51087;55.718;21.122;2023-07-29T10:52:05;4.45;;;1.50;;
64498;SDS011;51087;55.718;21.122;2023-07-29T10:54:31;2.28;;;1.23;;
64498;SDS011;51087;55.718;21.122;2023-07-29T10:57:06;3.00;;;1.25;;
64498;SDS011;51087;55.718;21.122;2023-07-29T10:59:32;2.53;;;1.20;;
64498;SDS011;51087;55.718;21.122;2023-07-29T11:02:00;2.53;;;1.30;;
64498;SDS011;51087;55.718;21.122;2023-07-29T11:04:26;2.22;;;1.13;;
64498;SDS011;51087;55.718;21.122;2023-07-29T11:07:52;5.00;;;1.30;;
64498;SDS011;51087;55.718;21.122;2023-07-29T11:17:38;1.70;;;0.90;;
64498;SDS011;51087;55.718;21.122;2023-07-29T11:20:04;1.40;;;0.98;;
64498;SDS011;51087;55.718;21.122;2023-07-29T11:22:30;1.17;;;0.95;;
64498;SDS011;51087;55.718;21.122;2023-07-29T11:24:55;3.35;;;1.50;;
64498;SDS011;51087;55.718;21.122;2023-07-29T11:27:20;5.00;;;1.13;;
64498;SDS011;51087;55.718;21.122;2023-07-29T11:29:46;2.75;;;1.63;;
64498;SDS011;51087;55.718;21.122;2023-07-29T11:32:11;2.20;;;1.27;;
64498;SDS011;51087;55.718;21.122;2023-07-29T11:34:37;1.88;;;1.20;;
64498;SDS011;51087;55.718;21.122;2023-07-29T11:37:05;3.10;;;1.55;;
64498;SDS011;51087;55.718;21.122;2023-07-29T11:39:31;3.42;;;1.05;;
64498;SDS011;51087;55.718;21.122;2023-07-29T11:41:57;2.72;;;1.83;;
64498;SDS011;51087;55.718;21.122;2023-07-29T11:44:22;3.33;;;1.27;;
64498;SDS011;51087;55.718;21.122;2023-07-29T11:46:48;2.80;;;1.30;;
64498;SDS011;51087;55.718;21.122;2023-07-29T11:49:13;2.85;;;0.68;;
64498;SDS011;51087;55.718;21.122;2023-07-29T11:51:39;2.90;;;1.05;;
64498;SDS011;51087;55.718;21.122;2023-07-29T11:54:06;1.45;;;1.10;;
64498;SDS011;51087;55.718;21.122;2023-07-29T11:56:31;2.55;;;1.42;;
64498;SDS011;51087;55.718;21.122;2023-07-29T11:58:57;2.10;;;1.15;;
64498;SDS011;51087;55.718;21.122;2023-07-29T12:01:22;2.63;;;1.15;;
64498;SDS011;51087;55.718;21.122;2023-07-29T12:03:48;2.15;;;0.93;;
64498;SDS011;51087;55.718;21.122;2023-07-29T12:06:14;4.05;;;1.23;;
64498;SDS011;51087;55.718;21.122;2023-07-29T12:08:40;2.42;;;1.20;;
64498;SDS011;51087;55.718;21.122;2023-07-29T12:11:05;3.28;;;0.90;;
64498;SDS011;51087;55.718;21.122;2023-07-29T12:13:31;3.60;;;1.30;;
64498;SDS011;51087;55.718;21.122;2023-07-29T12:16:02;2.58;;;1.20;;
64498;SDS011;51087;55.718;21.122;2023-07-29T12:18:32;1.52;;;1.08;;
64498;SDS011;51087;55.718;21.122;2023-07-29T12:20:57;3.17;;;1.33;;
64498;SDS011;51087;55.718;21.122;2023-07-29T12:23:25;2.85;;;1.40;;
64498;SDS011;51087;55.718;21.122;2023-07-29T12:25:57;2.50;;;1.05;;
64498;SDS011;51087;55.718;21.122;2023-07-29T12:28:23;1.98;;;1.20;;
64498;SDS011;51087;55.718;21.122;2023-07-29T12:30:52;4.68;;;1.52;;
64498;SDS011;51087;55.718;21.122;2023-07-29T12:33:36;4.57;;;1.58;;
64498;SDS011;51087;55.718;21.122;2023-07-29T12:36:02;4.13;;;1.40;;
64498;SDS011;51087;55.718;21.122;2023-07-29T12:38:29;3.20;;;1.42;;
64498;SDS011;51087;55.718;21.122;2023-07-29T12:40:54;4.32;;;1.63;;
64498;SDS011;51087;55.718;21.122;2023-07-29T12:43:20;6.95;;;1.40;;
64498;SDS011;51087;55.718;21.122;2023-07-29T12:45:45;3.22;;;1.40;;
64498;SDS011;51087;55.718;21.122;2023-07-29T12:48:11;5.90;;;1.60;;
64498;SDS011;51087;55.718;21.122;2023-07-29T12:50:37;1.67;;;1.23;;
64498;SDS011;51087;55.718;21.122;2023-07-29T12:53:02;2.05;;;1.30;;
64498;SDS011;51087;55.718;21.122;2023-07-29T12:55:28;4.43;;;1.58;;
64498;SDS011;51087;55.718;21.122;2023-07-29T12:57:53;3.03;;;1.60;;
64498;SDS011;51087;55.718;21.122;2023-07-29T13:00:18;3.50;;;1.60;;
64498;SDS011;51087;55.718;21.122;2023-07-29T13:02:43;3.30;;;1.58;;
64498;SDS011;51087;55.718;21.122;2023-07-29T13:05:09;3.33;;;1.73;;
64498;SDS011;51087;55.718;21.122;2023-07-29T13:07:36;2.60;;;1.50;;
64498;SDS011;51087;55.718;21.122;2023-07-29T13:10:01;2.20;;;1.48;;
64498;SDS011;51087;55.718;21.122;2023-07-29T13:12:26;3.30;;;1.50;;
64498;SDS011;51087;55.718;21.122;2023-07-29T13:14:51;1.90;;;1.48;;
64498;SDS011;51087;55.718;21.122;2023-07-29T13:17:17;3.03;;;1.80;;
64498;SDS011;51087;55.718;21.122;2023-07-29T13:19:42;3.90;;;1.77;;
64498;SDS011;51087;55.718;21.122;2023-07-29T13:22:07;3.00;;;1.63;;
64498;SDS011;51087;55.718;21.122;2023-07-29T13:24:32;5.32;;;2.00;;
64498;SDS011;51087;55.718;21.122;2023-07-29T13:26:58;4.13;;;1.97;;
64498;SDS011;51087;55.718;21.122;2023-07-29T13:29:23;3.85;;;1.63;;
64498;SDS011;51087;55.718;21.122;2023-07-29T13:31:48;3.97;;;1.92;;
64498;SDS011;51087;55.718;21.122;2023-07-29T13:34:14;5.10;;;2.60;;
64498;SDS011;51087;55.718;21.122;2023-07-29T13:36:39;4.93;;;2.33;;
64498;SDS011;51087;55.718;21.122;2023-07-29T13:39:04;7.60;;;2.50;;
64498;SDS011;51087;55.718;21.122;2023-07-29T13:41:30;3.88;;;2.30;;
64498;SDS011;51087;55.718;21.122;2023-07-29T13:43:55;3.90;;;2.20;;
64498;SDS011;51087;55.718;21.122;2023-07-29T13:46:20;3.97;;;2.28;;
64498;SDS011;51087;55.718;21.122;2023-07-29T13:48:46;3.25;;;1.95;;
64498;SDS011;51087;55.718;21.122;2023-07-29T13:51:11;4.10;;;2.03;;
64498;SDS011;51087;55.718;21.122;2023-07-29T13:53:36;5.25;;;2.10;;
64498;SDS011;51087;55.718;21.122;2023-07-29T13:56:02;3.88;;;2.25;;
64498;SDS011;51087;55.718;21.122;2023-07-29T13:58:27;4.18;;;2.38;;
64498;SDS011;51087;55.718;21.122;2023-07-29T14:00:52;4.60;;;2.20;;
64498;SDS011;51087;55.718;21.122;2023-07-29T14:03:18;3.20;;;2.20;;
64498;SDS011;51087;55.718;21.122;2023-07-29T14:05:43;5.30;;;2.10;;
64498;SDS011;51087;55.718;21.122;2023-07-29T14:08:08;3.80;;;1.88;;
64498;SDS011;51087;55.718;21.122;2023-07-29T14:10:33;5.67;;;2.70;;
64498;SDS011;51087;55.718;21.122;2023-07-29T14:12:59;5.18;;;2.22;;
64498;SDS011;51087;55.718;21.122;2023-07-29T14:15:24;4.45;;;2.63;;
64498;SDS011;51087;55.718;21.122;2023-07-29T14:17:49;5.45;;;2.40;;
64498;SDS011;51087;55.718;21.122;2023-07-29T14:20:15;4.47;;;2.53;;
64498;SDS011;51087;55.718;21.122;2023-07-29T14:22:40;3.05;;;1.73;;
64498;SDS011;51087;55.718;21.122;2023-07-29T14:25:06;5.22;;;2.60;;
64498;SDS011;51087;55.718;21.122;2023-07-29T14:27:31;5.50;;;3.10;;
64498;SDS011;51087;55.718;21.122;2023-07-29T14:29:56;2.40;;;1.42;;
64498;SDS011;51087;55.718;21.122;2023-07-29T14:32:22;4.32;;;2.60;;
64498;SDS011;51087;55.718;21.122;2023-07-29T14:34:47;3.30;;;2.30;;
64498;SDS011;51087;55.718;21.122;2023-07-29T14:37:14;3.45;;;2.05;;
64498;SDS011;51087;55.718;21.122;2023-07-29T14:39:39;4.60;;;2.47;;
64498;SDS011;51087;55.718;21.122;2023-07-29T14:42:04;3.13;;;2.40;;
64498;SDS011;51087;55.718;21.122;2023-07-29T14:44:29;4.15;;;2.45;;
64498;SDS011;51087;55.718;21.122;2023-07-29T14:46:55;2.78;;;1.83;;
64498;SDS011;51087;55.718;21.122;2023-07-29T14:49:20;5.10;;;2.22;;